Time;durP1;ratioP1;P1;durP2;ratioP2;P2;SDS_P1;SDS_P2;PMS_P1;PMS_P2;Temp;Humidity;BMP_temperature;BMP_pressure;BME280_temperature;BME280_humidity;BME280_pressure;Samples;Min_cycle;Max_cycle;Signal;HPM_P1;HPM_P2
2023/10/30 00:01:47;;;;;;;5.93;1.73;;;;;;;9.90;100.00;99628.81;4932033;29;20389;-81
2023/10/30 00:04:13;;;;;;;5.75;1.20;;;;;;;9.90;100.00;99638.72;4926326;29;20027;-81
2023/10/30 00:06:38;;;;;;;4.53;1.60;;;;;;;9.90;100.00;99625.28;4933217;29;20112;-81
2023/10/30 00:09:04;;;;;;;9.70;1.55;;;;;;;9.85;100.00;99628.66;4935754;29;20440;-81
2023/10/30 00:11:29;;;;;;;6.18;1.35;;;;;;;9.82;100.00;99626.41;4929790;29;20119;-81
2023/10/30 00:13:55;;;;;;;5.50;1.40;;;;;;;9.79;100.00;99626.88;4936681;29;20023;-81
2023/10/30 00:16:21;;;;;;;4.78;1.40;;;;;;;9.77;100.00;99626.28;4937528;29;20036;-81
2023/10/30 00:18:47;;;;;;;4.90;1.38;;;;;;;9.78;100.00;99622.53;4920038;29;20032;-81
2023/10/30 00:21:13;;;;;;;5.25;1.40;;;;;;;9.76;100.00;99622.75;4936530;29;20037;-81
2023/10/30 00:23:38;;;;;;;4.38;1.38;;;;;;;9.80;100.00;99629.34;5092903;23;20057;-81
2023/10/30 00:26:07;;;;;;;5.05;1.65;;;;;;;9.82;100.00;99638.00;4955945;28;20039;-82
2023/10/30 00:28:34;;;;;;;4.30;1.55;;;;;;;9.77;100.00;99642.41;4955160;28;20035;-82
2023/10/30 00:31:00;;;;;;;6.82;1.63;;;;;;;9.79;100.00;99648.38;4957350;28;20035;-81
2023/10/30 00:33:25;;;;;;;6.70;2.05;;;;;;;9.77;100.00;99656.66;4951016;28;20038;-82
2023/10/30 00:35:51;;;;;;;6.50;1.67;;;;;;;9.78;100.00;99652.91;4952462;28;20035;-81
2023/10/30 00:38:16;;;;;;;7.25;2.35;;;;;;;9.83;100.00;99650.41;4953430;28;20058;-81
2023/10/30 00:40:41;;;;;;;7.05;1.48;;;;;;;9.81;100.00;99660.53;4947901;28;20061;-81
2023/10/30 00:43:07;;;;;;;10.95;1.85;;;;;;;9.76;100.00;99664.94;5093650;23;20051;-82
2023/10/30 00:45:32;;;;;;;7.47;1.60;;;;;;;9.77;100.00;99664.72;4914035;29;20389;-81
2023/10/30 00:47:59;;;;;;;6.28;1.35;;;;;;;9.75;100.00;99666.78;4912285;29;20039;-81
2023/10/30 00:50:24;;;;;;;6.03;1.63;;;;;;;9.70;100.00;99672.03;4909035;29;20047;-81
2023/10/30 00:52:50;;;;;;;8.18;1.55;;;;;;;9.72;100.00;99677.97;4915782;29;20421;-81
2023/10/30 00:55:15;;;;;;;4.22;1.95;;;;;;;9.71;100.00;99687.09;4913208;29;20493;-82
2023/10/30 00:58:21;;;;;;;6.60;1.50;;;;;;;9.68;100.00;99679.47;5117917;23;20066;-81
2023/10/30 01:01:25;;;;;;;7.18;1.45;;;;;;;9.66;100.00;99693.13;4953807;28;20062;-82
2023/10/30 01:04:14;;;;;;;6.20;1.20;;;;;;;9.68;100.00;99693.72;4951160;28;20042;-81
2023/10/30 01:10:01;;;;;;;7.55;1.50;;;;;;;9.75;100.00;99696.34;4955402;28;20456;-81
2023/10/30 01:12:26;;;;;;;5.55;1.50;;;;;;;9.80;100.00;99698.38;4961820;28;20019;-81
2023/10/30 01:14:52;;;;;;;8.50;1.80;;;;;;;9.80;100.00;99688.47;4950521;28;20046;-81
2023/10/30 01:20:55;;;;;;;6.68;1.30;;;;;;;9.81;100.00;99695.47;4954978;28;20432;-81
2023/10/30 01:23:21;;;;;;;5.38;1.33;;;;;;;9.81;100.00;99702.72;4950142;28;20055;-81
2023/10/30 01:26:21;;;;;;;6.07;1.33;;;;;;;9.86;100.00;99702.88;4901191;29;20049;-81
2023/10/30 01:28:48;;;;;;;10.68;2.85;;;;;;;9.90;100.00;99700.56;4954009;28;20154;-81
2023/10/30 01:31:14;;;;;;;8.30;1.55;;;;;;;9.93;100.00;99708.19;4954691;28;20027;-81
2023/10/30 01:33:39;;;;;;;7.72;1.60;;;;;;;9.93;100.00;99700.97;4951365;28;20468;-81
2023/10/30 01:36:05;;;;;;;4.93;1.40;;;;;;;9.99;100.00;99699.25;4953145;28;20031;-81
2023/10/30 01:38:33;;;;;;;6.00;1.50;;;;;;;10.01;100.00;99708.72;4952842;28;20066;-81
2023/10/30 01:40:59;;;;;;;5.90;1.40;;;;;;;10.05;100.00;99711.81;4950805;28;20043;-81
2023/10/30 01:43:31;;;;;;;7.82;1.45;;;;;;;10.06;100.00;99713.44;4949427;28;20086;-81
2023/10/30 01:45:56;;;;;;;5.80;1.33;;;;;;;10.04;100.00;99714.72;4960481;28;20027;-81
2023/10/30 01:48:22;;;;;;;7.28;1.58;;;;;;;10.03;100.00;99716.59;4958889;28;20491;-81
2023/10/30 01:50:50;;;;;;;7.78;1.65;;;;;;;10.04;100.00;99725.47;4954434;28;20050;-81
2023/10/30 01:53:19;;;;;;;4.78;1.40;;;;;;;10.04;100.00;99726.31;4960679;28;20368;-81
2023/10/30 01:55:45;;;;;;;5.20;1.50;;;;;;;10.02;100.00;99723.81;4947029;28;20075;-81
2023/10/30 01:58:13;;;;;;;6.07;1.45;;;;;;;10.08;100.00;99722.09;4967285;28;20047;-82
2023/10/30 02:00:38;;;;;;;6.15;1.42;;;;;;;10.05;100.00;99721.75;4957079;28;20059;-82
2023/10/30 02:03:04;;;;;;;9.07;1.40;;;;;;;10.04;100.00;99720.09;4935514;29;20479;-81
2023/10/30 02:05:29;;;;;;;6.35;1.55;;;;;;;10.07;100.00;99712.41;4953654;28;20079;-81
2023/10/30 02:07:55;;;;;;;4.40;1.40;;;;;;;10.05;100.00;99721.75;4955408;28;20050;-81
2023/10/30 02:10:21;;;;;;;4.43;1.20;;;;;;;10.08;100.00;99716.72;4954447;28;20081;-81
2023/10/30 02:12:50;;;;;;;6.03;1.40;;;;;;;10.09;100.00;99707.63;4954154;28;20179;-81
2023/10/30 02:15:22;;;;;;;7.82;1.58;;;;;;;10.11;100.00;99707.41;4957068;28;20031;-82
2023/10/30 02:17:47;;;;;;;8.57;1.35;;;;;;;10.13;100.00;99721.47;4950841;28;20039;-82
2023/10/30 02:20:15;;;;;;;5.13;1.38;;;;;;;10.14;100.00;99715.84;4957328;28;20031;-81
2023/10/30 02:22:41;;;;;;;4.05;1.25;;;;;;;10.16;100.00;99718.31;4955922;28;20039;-82
2023/10/30 02:25:06;;;;;;;6.97;1.70;;;;;;;10.16;100.00;99718.31;4958618;28;20035;-81
2023/10/30 02:27:32;;;;;;;5.70;1.20;;;;;;;10.18;100.00;99720.78;4938660;29;20150;-82
2023/10/30 02:29:57;;;;;;;8.07;1.80;;;;;;;10.21;100.00;99721.16;4955523;28;20055;-82
2023/10/30 02:32:23;;;;;;;6.22;1.50;;;;;;;10.21;100.00;99721.16;4956675;28;20027;-82
2023/10/30 02:34:48;;;;;;;6.45;1.50;;;;;;;10.21;100.00;99723.03;4955735;28;20031;-82
2023/10/30 02:37:16;;;;;;;6.30;1.50;;;;;;;10.18;100.00;99718.91;4952825;28;20019;-82
2023/10/30 02:39:42;;;;;;;5.00;1.55;;;;;;;10.25;100.00;99721.53;4950806;28;20043;-81
2023/10/30 02:42:13;;;;;;;6.18;1.58;;;;;;;10.27;100.00;99722.13;4952728;28;20387;-81
2023/10/30 02:44:38;;;;;;;6.07;1.60;;;;;;;10.29;100.00;99725.44;4955792;28;20078;-81
2023/10/30 02:47:03;;;;;;;3.75;1.40;;;;;;;10.28;100.00;99715.72;4949941;28;20027;-82
2023/10/30 02:49:35;;;;;;;6.22;1.95;;;;;;;10.34;100.00;99711.31;4955075;28;20035;-82
2023/10/30 02:52:01;;;;;;;5.18;1.25;;;;;;;10.31;100.00;99705.34;4947328;28;20024;-82
2023/10/30 02:54:27;;;;;;;3.20;1.40;;;;;;;10.32;100.00;99698.09;4951950;28;20043;-82
2023/10/30 02:56:52;;;;;;;5.28;1.38;;;;;;;10.32;100.00;99706.97;4953164;28;20058;-82
2023/10/30 02:59:17;;;;;;;4.78;1.40;;;;;;;10.33;100.00;99702.41;4936317;28;20379;-82
2023/10/30 03:01:45;;;;;;;5.32;1.20;;;;;;;10.31;100.00;99704.50;4949131;28;20039;-82
2023/10/30 03:04:13;;;;;;;4.78;1.30;;;;;;;10.33;100.00;99710.50;4951434;28;20555;-81
2023/10/30 03:06:38;;;;;;;3.95;1.60;;;;;;;10.30;100.00;99716.31;4950459;28;20020;-82
2023/10/30 03:09:04;;;;;;;4.57;1.30;;;;;;;10.22;100.00;99716.63;4948141;28;20035;-82
2023/10/30 03:11:30;;;;;;;4.10;1.20;;;;;;;10.23;100.00;99712.88;4950904;28;20408;-82
2023/10/30 03:13:55;;;;;;;7.32;1.60;;;;;;;10.21;100.00;99720.34;4949174;28;20361;-82
2023/10/30 03:16:20;;;;;;;7.18;1.52;;;;;;;10.26;100.00;99709.72;4950218;28;20035;-82
2023/10/30 03:18:55;;;;;;;6.70;1.60;;;;;;;10.20;100.00;99716.81;4957049;28;20031;-81
2023/10/30 03:21:20;;;;;;;6.10;1.58;;;;;;;10.22;100.00;99722.81;4949559;28;20035;-81
2023/10/30 03:23:46;;;;;;;7.22;2.03;;;;;;;10.17;100.00;99717.25;4950785;28;20019;-81
2023/10/30 03:26:11;;;;;;;5.32;1.90;;;;;;;10.19;100.00;99714.38;4952052;28;20031;-82
2023/10/30 03:28:36;;;;;;;5.78;1.60;;;;;;;10.16;100.00;99719.16;4951175;28;20031;-81
2023/10/30 03:31:09;;;;;;;5.03;1.35;;;;;;;10.14;100.00;99731.19;4952855;28;20028;-80
2023/10/30 03:33:35;;;;;;;4.75;1.50;;;;;;;10.10;100.00;99729.97;4950053;28;20027;-80
2023/10/30 03:36:01;;;;;;;9.32;1.83;;;;;;;10.09;100.00;99723.75;4951604;28;20030;-80
2023/10/30 03:38:27;;;;;;;5.63;1.65;;;;;;;10.08;100.00;99730.19;4943592;28;20035;-80
2023/10/30 03:40:52;;;;;;;10.63;1.83;;;;;;;10.06;100.00;99728.75;4946723;28;20035;-81
2023/10/30 03:43:18;;;;;;;8.30;1.63;;;;;;;10.01;100.00;99726.75;4952159;28;20464;-79
2023/10/30 03:45:44;;;;;;;5.90;1.48;;;;;;;10.00;100.00;99733.16;4956009;28;20033;-79
2023/10/30 03:48:09;;;;;;;6.18;1.50;;;;;;;10.05;100.00;99727.13;4955030;28;20110;-79
2023/10/30 03:50:35;;;;;;;6.07;2.28;;;;;;;10.04;100.00;99739.75;4955200;28;20121;-79
2023/10/30 03:53:05;;;;;;;7.40;1.75;;;;;;;10.02;100.00;99737.25;4955852;28;20077;-79
2023/10/30 03:55:31;;;;;;;5.78;1.35;;;;;;;10.05;100.00;99749.47;4955783;29;20110;-79
2023/10/30 03:57:56;;;;;;;5.15;1.40;;;;;;;10.02;100.00;99741.84;4954092;28;20419;-79
2023/10/30 04:00:21;;;;;;;6.35;1.58;;;;;;;9.96;100.00;99751.59;4955296;28;20035;-79
2023/10/30 04:02:47;;;;;;;6.72;1.67;;;;;;;9.89;100.00;99747.31;4953903;28;20424;-79
2023/10/30 04:05:12;;;;;;;6.82;1.23;;;;;;;9.91;100.00;99746.06;4959279;28;20011;-80
2023/10/30 04:07:39;;;;;;;5.45;1.58;;;;;;;9.93;100.00;99761.97;4976535;28;20039;-79
2023/10/30 04:10:05;;;;;;;5.47;1.50;;;;;;;9.88;100.00;99754.56;4953412;28;20143;-80
2023/10/30 04:12:30;;;;;;;6.53;1.63;;;;;;;9.84;100.00;99751.50;4953404;28;20077;-79
2023/10/30 04:14:56;;;;;;;4.25;1.35;;;;;;;9.85;100.00;99761.22;4957282;28;20433;-80
2023/10/30 04:17:21;;;;;;;7.72;2.05;;;;;;;9.86;100.00;99757.47;4954922;28;20041;-79
2023/10/30 04:19:47;;;;;;;7.70;1.63;;;;;;;9.79;100.00;99755.88;4955532;28;20031;-79
2023/10/30 04:32:14;;;;;;;8.45;1.60;;;;;;;9.54;100.00;99762.06;4965246;28;20114;-79
2023/10/30 04:38:10;;;;;;;4.18;1.60;;;;;;;9.24;100.00;99755.41;4968462;28;20163;-79
2023/10/30 04:40:51;;;;;;;4.45;1.60;;;;;;;9.15;100.00;99756.72;4960921;28;20393;-79
2023/10/30 04:43:50;;;;;;;6.22;1.58;;;;;;;9.14;100.00;99755.06;4959210;28;20027;-79
2023/10/30 04:52:16;;;;;;;9.18;1.52;;;;;;;9.12;100.00;99732.13;5134737;23;20066;-78
2023/10/30 04:54:41;;;;;;;7.82;2.15;;;;;;;9.22;100.00;99730.63;4955142;28;20026;-78
2023/10/30 04:59:42;;;;;;;7.43;1.50;;;;;;;9.29;100.00;99733.28;5251538;23;20504;-79
2023/10/30 05:02:07;;;;;;;4.38;1.60;;;;;;;9.30;100.00;99737.59;4948654;28;20024;-78
2023/10/30 05:04:33;;;;;;;4.70;1.30;;;;;;;9.32;100.00;99734.72;4955221;28;20400;-78
2023/10/30 05:06:59;;;;;;;9.07;1.80;;;;;;;9.39;100.00;99743.53;4958490;28;20035;-82
2023/10/30 05:09:24;;;;;;;7.80;2.00;;;;;;;9.43;100.00;99747.44;4951349;28;20476;-78
2023/10/30 05:11:49;;;;;;;10.02;1.60;;;;;;;9.37;100.00;99748.31;4952236;28;20019;-78
2023/10/30 05:14:15;;;;;;;9.52;1.73;;;;;;;9.44;100.00;99748.28;4955895;28;20035;-77
2023/10/30 05:16:40;;;;;;;5.10;1.40;;;;;;;9.49;100.00;99751.97;4952373;28;20601;-77
2023/10/30 05:19:06;;;;;;;5.13;1.48;;;;;;;9.48;100.00;99753.00;4954384;28;20122;-78
2023/10/30 05:21:31;;;;;;;4.32;1.63;;;;;;;9.41;100.00;99744.16;4957707;28;20063;-78
2023/10/30 05:23:57;;;;;;;5.35;1.50;;;;;;;9.48;100.00;99747.63;4964588;28;20027;-77
2023/10/30 05:26:25;;;;;;;4.43;1.45;;;;;;;9.48;100.00;99747.63;4962630;28;20027;-78
2023/10/30 05:28:50;;;;;;;8.70;1.45;;;;;;;9.45;100.00;99750.75;4971910;28;20065;-78
2023/10/30 05:31:16;;;;;;;6.13;1.77;;;;;;;9.38;100.00;99744.56;4967362;28;20111;-78
2023/10/30 05:33:43;;;;;;;9.73;1.77;;;;;;;9.31;100.00;99752.69;4955830;28;20025;-78
2023/10/30 05:36:09;;;;;;;5.45;1.70;;;;;;;9.27;100.00;99742.59;4956028;28;20031;-78
2023/10/30 05:38:34;;;;;;;4.35;1.33;;;;;;;9.25;100.00;99742.81;4955032;28;20094;-78
2023/10/30 05:41:00;;;;;;;6.35;1.60;;;;;;;9.20;100.00;99740.75;4954595;28;20038;-77
2023/10/30 05:43:27;;;;;;;6.50;1.67;;;;;;;9.21;100.00;99738.91;4954495;28;20801;-77
2023/10/30 05:45:53;;;;;;;6.70;1.70;;;;;;;9.16;100.00;99752.16;4953955;28;20082;-77
2023/10/30 05:48:19;;;;;;;6.55;2.08;;;;;;;9.16;100.00;99742.25;4954823;28;20039;-77
2023/10/30 05:50:44;;;;;;;5.28;1.45;;;;;;;9.11;100.00;99739.38;4956603;28;20387;-78
2023/10/30 05:53:09;;;;;;;6.00;1.65;;;;;;;9.03;100.00;99735.09;4955620;28;20103;-78
2023/10/30 05:55:35;;;;;;;5.20;1.55;;;;;;;9.01;100.00;99744.38;4955324;28;20049;-77
2023/10/30 05:58:00;;;;;;;6.15;1.70;;;;;;;8.98;100.00;99748.31;4953717;28;20502;-77
2023/10/30 06:00:26;;;;;;;7.53;1.65;;;;;;;8.95;100.00;99741.53;4955809;28;20035;-79
2023/10/30 06:02:52;;;;;;;6.75;1.50;;;;;;;8.95;100.00;99741.53;4953961;28;20452;-80
2023/10/30 06:05:18;;;;;;;6.32;1.50;;;;;;;8.90;100.00;99749.38;4954942;28;20102;-79
2023/10/30 06:07:44;;;;;;;6.72;1.50;;;;;;;8.83;100.00;99743.22;4954220;28;20058;-79
2023/10/30 06:10:11;;;;;;;4.78;1.55;;;;;;;8.83;100.00;99753.13;4955454;28;20034;-80
2023/10/30 06:12:40;;;;;;;4.55;1.33;;;;;;;8.80;100.00;99751.72;4958557;28;20035;-78
2023/10/30 06:15:07;;;;;;;6.63;1.55;;;;;;;8.79;100.00;99750.06;4961767;28;20041;-77
2023/10/30 06:17:32;;;;;;;6.70;1.60;;;;;;;8.78;100.00;99745.72;4968603;28;20098;-77
2023/10/30 06:19:58;;;;;;;5.70;1.90;;;;;;;8.68;100.00;99750.69;4967495;28;20050;-78
2023/10/30 06:25:05;;;;;;;5.20;1.67;;;;;;;8.69;100.00;99753.19;5552657;23;20277;-78
2023/10/30 06:27:31;;;;;;;7.22;1.65;;;;;;;8.77;100.00;99765.53;4940100;28;20408;-78
2023/10/30 06:29:56;;;;;;;5.38;1.40;;;;;;;8.85;100.00;99764.47;4960255;28;20046;-78
2023/10/30 06:32:22;;;;;;;5.55;1.50;;;;;;;8.84;100.00;99758.28;4953851;28;20027;-78
2023/10/30 06:34:47;;;;;;;5.10;1.38;;;;;;;8.87;100.00;99773.97;4954672;28;20542;-78
2023/10/30 06:37:14;;;;;;;;;;;;;;;8.93;100.00;99775.81;4954603;28;20039;-78
2023/10/30 06:39:39;;;;;;;6.22;1.40;;;;;;;8.93;100.00;99773.13;4952061;28;19923;-78
2023/10/30 06:42:07;;;;;;;5.88;1.42;;;;;;;8.92;100.00;99766.09;4952704;28;20031;-78
2023/10/30 06:47:07;;;;;;;4.25;1.40;;;;;;;8.98;100.00;99774.34;5222307;23;20051;-77
2023/10/30 06:49:33;;;;;;;6.65;1.60;;;;;;;8.99;100.00;99773.31;4971028;28;20037;-77
2023/10/30 06:52:01;;;;;;;4.78;1.42;;;;;;;9.00;100.00;99770.41;4968152;28;20019;-78
2023/10/30 06:54:27;;;;;;;3.58;1.30;;;;;;;8.98;100.00;99777.03;4962192;28;20027;-78
2023/10/30 06:56:53;;;;;;;7.32;1.50;;;;;;;9.00;100.00;99783.00;4957212;28;20094;-78
2023/10/30 06:59:18;;;;;;;5.65;1.45;;;;;;;9.05;100.00;99784.00;4955562;28;20372;-78
2023/10/30 07:01:45;;;;;;;4.78;1.52;;;;;;;9.09;100.00;99784.41;4953848;28;20031;-78
2023/10/30 07:04:14;;;;;;;2.92;1.38;;;;;;;9.16;100.00;99795.13;4966935;28;20035;-78
2023/10/30 07:06:45;;;;;;;6.85;1.52;;;;;;;9.33;100.00;99796.25;4962538;28;20035;-78
2023/10/30 07:09:11;;;;;;;8.32;1.58;;;;;;;9.74;100.00;99801.41;4954990;28;20558;-78
2023/10/30 07:11:36;;;;;;;7.57;1.38;;;;;;;10.50;100.00;99809.47;4968931;28;20030;-78
2023/10/30 07:14:03;;;;;;;5.53;1.60;;;;;;;11.44;99.75;99813.78;4966410;28;20027;-78
2023/10/30 07:16:38;;;;;;;5.03;1.25;;;;;;;12.24;94.05;99817.97;4953204;28;20027;-78
2023/10/30 07:19:04;;;;;;;7.13;1.83;;;;;;;12.88;89.31;99816.41;4961331;28;20113;-78
2023/10/30 07:21:35;;;;;;;4.82;1.48;;;;;;;13.11;86.37;99823.63;4958751;28;20072;-78
2023/10/30 07:24:00;;;;;;;8.27;1.92;;;;;;;13.75;82.42;99822.72;4966052;28;20027;-78
2023/10/30 07:26:25;;;;;;;7.20;1.88;;;;;;;14.21;79.83;99822.66;4968989;28;20388;-78
2023/10/30 07:28:55;;;;;;;3.78;1.50;;;;;;;14.76;77.81;99822.13;4954378;28;20472;-78
2023/10/30 07:31:20;;;;;;;6.80;1.58;;;;;;;15.12;74.07;99822.59;4960226;28;20093;-78
2023/10/30 07:33:45;;;;;;;9.02;1.70;;;;;;;15.66;73.35;99821.00;4957241;28;20030;-78
2023/10/30 07:36:11;;;;;;;7.78;1.90;;;;;;;16.12;69.77;99826.06;4960483;28;20019;-78
2023/10/30 07:38:36;;;;;;;6.78;1.70;;;;;;;16.12;68.56;99837.72;4962561;28;20037;-78
2023/10/30 07:41:03;;;;;;;6.38;1.50;;;;;;;16.28;68.02;99824.25;4953122;28;20042;-78
2023/10/30 07:43:28;;;;;;;6.35;1.80;;;;;;;16.47;66.57;99824.69;4957008;28;20041;-79
2023/10/30 07:45:54;;;;;;;5.90;1.70;;;;;;;16.49;66.89;99825.25;4967111;28;20051;-79
2023/10/30 07:48:20;;;;;;;6.80;1.90;;;;;;;16.69;65.44;99824.53;4961464;28;20504;-78
2023/10/30 07:50:46;;;;;;;7.15;2.08;;;;;;;17.07;64.55;99825.31;4953568;28;20031;-78
2023/10/30 07:53:11;;;;;;;7.07;1.65;;;;;;;17.31;62.69;99824.81;4939319;28;20093;-78
2023/10/30 07:55:38;;;;;;;6.00;1.70;;;;;;;16.94;63.67;99828.47;4966422;28;20039;-78
2023/10/30 07:58:04;;;;;;;6.30;1.73;;;;;;;16.40;65.64;99832.22;4963680;28;20499;-78
2023/10/30 08:00:35;;;;;;;6.32;1.80;;;;;;;15.14;70.20;99812.31;4972412;28;20065;-79
2023/10/30 08:03:01;;;;;;;5.78;1.55;;;;;;;14.60;73.30;99819.19;4952684;28;20468;-78
2023/10/30 08:08:01;;;;;;;8.75;1.83;;;;;;;13.53;79.09;99829.88;6062334;23;20066;-78
2023/10/30 08:10:45;;;;;;;6.85;1.95;;;;;;;13.22;80.44;99829.25;4970941;28;20035;-78
2023/10/30 08:13:12;;;;;;;5.57;1.70;;;;;;;12.93;82.74;99834.59;4967409;28;20082;-78
2023/10/30 08:15:52;;;;;;;7.00;2.03;;;;;;;12.69;84.59;99823.84;4969914;28;20061;-78
2023/10/30 08:18:19;;;;;;;8.23;2.05;;;;;;;12.52;85.74;99838.06;5135315;23;20054;-78
2023/10/30 08:20:44;;;;;;;7.00;1.67;;;;;;;12.39;86.66;99831.03;4981081;28;20035;-78
2023/10/30 08:23:10;;;;;;;8.13;1.83;;;;;;;12.27;87.62;99841.81;4978294;28;20048;-79
2023/10/30 08:25:35;;;;;;;6.13;1.40;;;;;;;12.06;89.36;99840.50;4977479;28;20054;-78
2023/10/30 08:28:00;;;;;;;11.48;1.98;;;;;;;12.06;89.08;99837.78;4990645;28;20038;-78
2023/10/30 08:30:26;;;;;;;6.45;1.60;;;;;;;12.08;89.34;99845.63;4994255;28;20379;-78
2023/10/30 08:32:54;;;;;;;7.47;1.83;;;;;;;12.03;90.15;99848.19;4987539;28;20658;-78
2023/10/30 08:35:20;;;;;;;6.05;1.73;;;;;;;12.06;90.10;99850.44;4977636;28;20062;-77
2023/10/30 08:37:45;;;;;;;7.90;1.85;;;;;;;11.94;90.42;99845.81;4981923;28;20043;-78
2023/10/30 08:40:12;;;;;;;6.55;1.85;;;;;;;12.14;90.57;99852.81;4984470;28;20023;-79
2023/10/30 08:42:37;;;;;;;12.82;2.67;;;;;;;12.22;89.96;99852.47;4986364;28;20026;-78
2023/10/30 08:45:03;;;;;;;6.10;1.60;;;;;;;12.31;88.97;99833.25;4983226;28;20045;-78
2023/10/30 08:47:28;;;;;;;8.23;1.90;;;;;;;12.39;89.44;99840.97;4977777;28;20158;-78
2023/10/30 08:49:54;;;;;;;6.70;1.80;;;;;;;12.44;88.83;99838.41;4983508;28;20411;-78
2023/10/30 08:52:20;;;;;;;8.45;1.98;;;;;;;12.46;89.18;99830.91;4980733;28;20030;-78
2023/10/30 08:54:45;;;;;;;8.95;1.70;;;;;;;12.43;89.13;99836.75;4981762;28;20042;-79
2023/10/30 08:57:12;;;;;;;6.50;1.85;;;;;;;12.56;88.98;99836.53;4981463;28;20023;-79
2023/10/30 08:59:38;;;;;;;6.53;1.88;;;;;;;12.62;89.00;99842.03;4983697;28;20026;-78
2023/10/30 09:02:06;;;;;;;4.85;1.80;;;;;;;12.67;87.98;99834.06;4987153;28;20030;-78
2023/10/30 09:04:33;;;;;;;9.70;2.00;;;;;;;12.68;87.81;99835.72;4990011;28;20031;-78
2023/10/30 09:07:01;;;;;;;5.60;2.10;;;;;;;12.71;88.88;99832.50;4989942;28;20028;-78
2023/10/30 09:09:26;;;;;;;9.30;1.90;;;;;;;12.83;88.58;99833.34;4979706;28;20035;-78
2023/10/30 09:11:52;;;;;;;9.23;1.70;;;;;;;12.89;88.66;99845.88;4992712;28;20041;-78
2023/10/30 09:14:17;;;;;;;10.93;2.00;;;;;;;13.08;86.32;99851.13;4987236;28;20102;-78
2023/10/30 09:16:43;;;;;;;10.90;2.03;;;;;;;13.03;86.86;99848.34;4986225;28;20383;-79
2023/10/30 09:19:08;;;;;;;7.70;1.67;;;;;;;13.11;86.70;99856.06;4971358;23;20058;-79
2023/10/30 09:21:38;;;;;;;8.88;1.63;;;;;;;13.24;85.96;99857.69;4956235;28;20032;-78
2023/10/30 09:24:05;;;;;;;8.68;2.20;;;;;;;13.36;84.79;99846.84;4956786;28;20062;-78
2023/10/30 09:26:31;;;;;;;6.55;1.90;;;;;;;13.41;85.06;99852.38;4949693;28;20031;-79
2023/10/30 09:28:56;;;;;;;6.25;1.90;;;;;;;13.42;84.60;99854.00;4954626;28;20097;-78
2023/10/30 09:31:21;;;;;;;6.80;1.73;;;;;;;13.44;84.51;99845.66;4954554;28;20019;-78
2023/10/30 09:33:48;;;;;;;8.60;2.05;;;;;;;13.38;84.81;99842.03;4954541;28;20045;-78
2023/10/30 09:36:13;;;;;;;7.40;2.17;;;;;;;13.35;85.27;99845.19;4954349;28;20035;-78
2023/10/30 09:38:39;;;;;;;5.65;1.77;;;;;;;13.19;85.63;99849.47;4955738;28;20038;-78
2023/10/30 09:41:05;;;;;;;5.38;1.80;;;;;;;13.27;85.85;99849.09;4959395;28;20031;-79
2023/10/30 09:43:51;;;;;;;7.20;1.70;;;;;;;13.44;85.18;99843.78;4955696;28;20019;-79
2023/10/30 09:46:16;;;;;;;7.57;1.73;;;;;;;13.44;85.47;99860.00;4965054;28;20114;-79
2023/10/30 09:48:44;;;;;;;8.90;2.10;;;;;;;13.51;85.64;99854.44;4950512;28;20038;-79
2023/10/30 09:51:10;;;;;;;7.85;2.17;;;;;;;13.56;84.26;99859.97;4956131;28;20031;-79
2023/10/30 09:53:36;;;;;;;5.72;1.95;;;;;;;13.61;85.03;99853.81;4922359;29;20028;-79
2023/10/30 09:56:04;;;;;;;7.45;1.88;;;;;;;13.64;85.29;99854.19;4917650;28;20038;-79
2023/10/30 09:58:29;;;;;;;5.28;2.10;;;;;;;13.75;84.16;99846.22;4953068;28;20042;-78
2023/10/30 10:00:55;;;;;;;6.55;1.58;;;;;;;13.70;83.86;99848.84;4938877;28;20036;-79
2023/10/30 10:03:21;;;;;;;6.68;1.80;;;;;;;13.49;85.47;99860.09;4938783;29;20035;-78
2023/10/30 10:05:54;;;;;;;6.22;1.63;;;;;;;13.63;84.17;99849.81;4964833;28;20110;-79
2023/10/30 10:08:19;;;;;;;6.78;1.83;;;;;;;13.61;84.20;99845.69;4956089;28;20035;-79
2023/10/30 10:11:01;;;;;;;6.35;1.80;;;;;;;13.40;85.16;99842.63;4954888;28;20036;-78
2023/10/30 10:13:31;;;;;;;6.30;1.90;;;;;;;13.49;85.82;99845.78;4955683;28;20069;-79
2023/10/30 10:15:56;;;;;;;9.20;2.00;;;;;;;13.48;85.28;99831.41;4952182;28;20043;-78
2023/10/30 10:18:22;;;;;;;8.05;2.10;;;;;;;13.49;85.41;99824.94;4954159;28;20048;-78
2023/10/30 10:20:59;;;;;;;6.40;2.00;;;;;;;13.48;85.43;99833.31;4936982;29;20031;-79
2023/10/30 10:23:25;;;;;;;6.55;1.80;;;;;;;13.51;85.72;99835.50;4946535;28;20090;-78
2023/10/30 10:25:55;;;;;;;5.65;1.80;;;;;;;13.54;85.55;99840.44;4948446;28;20032;-78
2023/10/30 10:28:22;;;;;;;8.95;2.33;;;;;;;13.63;84.96;99839.00;4950664;28;20044;-77
2023/10/30 10:30:47;;;;;;;8.18;1.88;;;;;;;13.60;85.12;99846.75;4958299;28;20050;-78
2023/10/30 10:33:12;;;;;;;5.82;1.85;;;;;;;13.62;85.11;99841.94;4959855;28;20027;-78
2023/10/30 10:35:41;;;;;;;5.18;1.70;;;;;;;13.70;84.89;99838.84;4957802;28;20031;-78
2023/10/30 10:38:08;;;;;;;6.78;1.98;;;;;;;13.86;85.11;99831.00;4971249;28;20035;-78
2023/10/30 10:40:37;;;;;;;7.15;1.63;;;;;;;13.96;84.31;99828.47;4958892;28;20027;-78
2023/10/30 10:43:05;;;;;;;6.90;1.92;;;;;;;14.14;82.36;99819.31;4954451;28;20098;-78
2023/10/30 10:45:31;;;;;;;9.35;2.33;;;;;;;14.26;82.43;99811.09;4956583;28;20034;-79
2023/10/30 10:47:57;;;;;;;9.45;2.00;;;;;;;14.20;82.49;99799.38;4938142;28;20031;-78
2023/10/30 10:50:22;;;;;;;7.40;2.00;;;;;;;14.45;83.12;99803.53;4938509;29;20026;-79
2023/10/30 10:52:48;;;;;;;7.03;1.98;;;;;;;14.52;81.20;99800.63;4953042;28;20042;-79
2023/10/30 10:55:14;;;;;;;8.02;1.88;;;;;;;14.80;80.69;99801.59;4935794;28;20034;-78
2023/10/30 10:57:52;;;;;;;6.32;1.90;;;;;;;15.01;79.45;99787.22;4953160;28;20035;-78
2023/10/30 11:00:17;;;;;;;9.13;1.95;;;;;;;15.20;78.53;99778.75;4953179;28;20484;-78
2023/10/30 11:02:46;;;;;;;9.70;1.90;;;;;;;15.22;77.90;99779.31;4953541;28;20039;-79
2023/10/30 11:05:12;;;;;;;6.85;1.80;;;;;;;15.44;76.70;99789.31;4954065;28;20527;-79
2023/10/30 11:08:00;;;;;;;7.57;1.70;;;;;;;15.35;76.91;99793.56;4927880;29;20150;-78
2023/10/30 11:10:32;;;;;;;4.72;1.60;;;;;;;15.14;76.54;99796.06;4934988;29;20027;-78
2023/10/30 11:13:31;;;;;;;7.13;2.00;;;;;;;15.36;76.31;99776.19;4921391;29;20082;-78
2023/10/30 11:16:18;;;;;;;8.77;2.20;;;;;;;15.42;77.10;99776.03;4932948;29;20464;-78
2023/10/30 11:18:43;;;;;;;6.00;2.10;;;;;;;15.43;76.57;99772.25;4936311;28;20496;-79
2023/10/30 11:21:11;;;;;;;5.90;1.70;;;;;;;15.42;76.48;99758.91;4935012;29;20061;-79
2023/10/30 11:23:58;;;;;;;3.63;1.50;;;;;;;15.16;76.40;99764.09;4950515;28;20070;-78
2023/10/30 11:26:29;;;;;;;4.65;1.35;;;;;;;14.88;78.08;99757.00;4952896;28;20062;-78
2023/10/30 11:28:58;;;;;;;5.85;1.90;;;;;;;14.83;78.90;99771.28;4947232;28;20027;-77
2023/10/30 11:31:24;;;;;;;8.23;1.70;;;;;;;14.80;78.65;99769.09;4952325;28;20031;-78
2023/10/30 11:33:49;;;;;;;6.68;1.80;;;;;;;14.91;78.64;99768.13;4935485;29;20569;-78
2023/10/30 11:36:15;;;;;;;5.97;1.58;;;;;;;14.80;78.63;99763.66;4945615;28;20055;-78
2023/10/30 11:39:10;;;;;;;7.90;1.90;;;;;;;14.74;78.98;99760.06;4952583;28;20069;-78
2023/10/30 11:41:44;;;;;;;6.95;1.70;;;;;;;14.57;79.68;99760.09;4925021;28;20035;-78
2023/10/30 11:44:13;;;;;;;8.27;1.67;;;;;;;14.36;80.45;99754.38;4930753;29;20015;-78
2023/10/30 11:46:46;;;;;;;8.73;1.77;;;;;;;14.34;81.22;99753.00;4951953;28;20038;-78
2023/10/30 11:49:12;;;;;;;6.55;1.75;;;;;;;14.25;81.82;99749.91;4935166;29;20423;-78
2023/10/30 11:51:41;;;;;;;8.70;2.10;;;;;;;14.25;81.71;99752.63;4953569;28;20027;-78
2023/10/30 11:54:07;;;;;;;9.98;1.73;;;;;;;14.19;82.20;99743.59;4936203;29;20085;-78
2023/10/30 11:56:32;;;;;;;5.30;2.20;;;;;;;14.17;81.67;99740.31;4952863;28;20483;-78
2023/10/30 11:58:57;;;;;;;5.30;1.80;;;;;;;14.05;82.85;99743.13;4945452;28;20042;-78
2023/10/30 12:01:23;;;;;;;4.75;1.60;;;;;;;13.97;83.41;99727.28;4933668;29;20066;-78
2023/10/30 12:03:48;;;;;;;5.97;1.80;;;;;;;13.98;83.32;99720.81;4919992;29;20028;-78
2023/10/30 12:06:14;;;;;;;4.38;1.50;;;;;;;14.01;83.98;99712.22;4963342;28;20027;-78
2023/10/30 12:08:39;;;;;;;6.45;1.80;;;;;;;13.95;82.67;99711.31;4956003;28;20102;-77
2023/10/30 12:11:04;;;;;;;5.40;1.73;;;;;;;13.90;83.64;99710.44;4956082;28;20015;-78